CES258 ZSPD-LTFM
Flight info
| Callsign | CES258 |
|---|---|
| Flight time | N/A |
| Altitude | 30100 |
| Route | PIK81D/17L PIKAS G330 PIMOL A593 DALIM W157 BEKDO/K0915S0950 W157 VYK G212 SOTMU/K0904S0920 B339 ASILA/K0911S0980 A575 UPREK W28 LAGEB W66 NUKTI B215 FKG A368 UGPEL/K0906S1040 A368 SARIN/K0906F340 N161 MASAV/K0900F360 N161 GASBI/N0489F360 N161 LEYLA N644 ADEKI DCT BADIR DCT LAGAS DCT FOQUS DCT SARPI UM10 HAKAN UN644 GUMRU UT315 NUGBA |
| Aircraft | A346/H-SDE2E3FGHIJ3J4J5M1RWXY/LB1D1 |
Departure
| Time | 2026-05-04 16:16 |
|---|---|
| Airport | Shanghai Pudong International Airport (ZSPD) |
Arrival
| Time | N/A |
|---|---|
| Airport | İstanbul Airport (LTFM) |
| Time | Latitude | Longitude | Altitude | Speed | Heading |
|---|---|---|---|---|---|
| 2026-05-04 15:52 | 31.14538 | 121.79864 | 31 ft | 0 kts | 72° |
| 2026-05-04 16:03 | 31.14535 | 121.79852 | 31 ft | 4 kts | 73° |
| 2026-05-04 16:03 | 31.14527 | 121.79822 | 28 ft | 4 kts | 78° |
| 2026-05-04 16:03 | 31.14524 | 121.79792 | 30 ft | 4 kts | 91° |
| 2026-05-04 16:03 | 31.14528 | 121.79766 | 29 ft | 4 kts | 117° |
| 2026-05-04 16:04 | 31.14537 | 121.79753 | 29 ft | 3 kts | 159° |
| 2026-05-04 16:04 | 31.14540 | 121.79752 | 31 ft | 0 kts | 162° |
| 2026-05-04 16:06 | 31.14476 | 121.79775 | 31 ft | 6 kts | 170° |
| 2026-05-04 16:07 | 31.14433 | 121.79762 | 31 ft | 7 kts | 221° |
| 2026-05-04 16:07 | 31.14374 | 121.79567 | 31 ft | 10 kts | 253° |
| 2026-05-04 16:08 | 31.14377 | 121.79485 | 31 ft | 11 kts | 309° |
| 2026-05-04 16:08 | 31.14624 | 121.79383 | 31 ft | 14 kts | 342° |
| 2026-05-04 16:09 | 31.14813 | 121.79312 | 31 ft | 15 kts | 342° |
| 2026-05-04 16:09 | 31.15017 | 121.79235 | 31 ft | 16 kts | 342° |
| 2026-05-04 16:10 | 31.15232 | 121.79155 | 30 ft | 16 kts | 342° |
| 2026-05-04 16:11 | 31.15564 | 121.79030 | 30 ft | 17 kts | 341° |
| 2026-05-04 16:11 | 31.15675 | 121.78987 | 30 ft | 17 kts | 342° |
| 2026-05-04 16:12 | 31.16001 | 121.78861 | 31 ft | 16 kts | 334° |
| 2026-05-04 16:12 | 31.16138 | 121.78798 | 31 ft | 0 kts | 314° |
| 2026-05-04 16:13 | 31.16151 | 121.78772 | 31 ft | 6 kts | 287° |
| 2026-05-04 16:14 | 31.16137 | 121.78678 | 31 ft | 7 kts | 243° |
| 2026-05-04 16:14 | 31.16039 | 121.78632 | 30 ft | 10 kts | 162° |
| 2026-05-04 16:15 | 31.15038 | 121.79007 | 32 ft | 131 kts | 161° |
| 2026-05-04 16:16 | 31.12717 | 121.79933 | 198 ft | 208 kts | 160° |
| 2026-05-04 16:16 | 31.08481 | 121.81314 | 2440 ft | 206 kts | 168° |
| 2026-05-04 16:17 | 31.05527 | 121.82224 | 3002 ft | 243 kts | 167° |
| 2026-05-04 16:18 | 31.00210 | 121.82790 | 4217 ft | 270 kts | 211° |
| 2026-05-04 16:18 | 30.98833 | 121.81335 | 4841 ft | 270 kts | 240° |
| 2026-05-04 16:19 | 30.96983 | 121.75009 | 5892 ft | 279 kts | 254° |
| 2026-05-04 16:19 | 30.96382 | 121.70588 | 5928 ft | 281 kts | 279° |
| 2026-05-04 16:20 | 30.97609 | 121.63866 | 7859 ft | 283 kts | 283° |
| 2026-05-04 16:20 | 30.98458 | 121.59328 | 9045 ft | 289 kts | 283° |
| 2026-05-04 16:21 | 30.99750 | 121.52337 | 10589 ft | 304 kts | 283° |
| 2026-05-04 16:22 | 31.00677 | 121.47289 | 11094 ft | 332 kts | 283° |
| 2026-05-04 16:22 | 31.02218 | 121.38913 | 11860 ft | 371 kts | 282° |
| 2026-05-04 16:23 | 31.03862 | 121.29949 | 13594 ft | 380 kts | 282° |
| 2026-05-04 16:24 | 31.06262 | 121.17861 | 15749 ft | 389 kts | 294° |
| 2026-05-04 16:25 | 31.09996 | 121.13315 | 16749 ft | 401 kts | 330° |
| 2026-05-04 16:26 | 31.21370 | 121.11775 | 18658 ft | 421 kts | 354° |
| 2026-05-04 16:26 | 31.30184 | 121.11281 | 19921 ft | 428 kts | 353° |
| 2026-05-04 16:27 | 31.36180 | 121.11094 | 20764 ft | 435 kts | 358° |
| 2026-05-04 16:28 | 31.45282 | 121.10944 | 21988 ft | 436 kts | 344° |
| 2026-05-04 16:28 | 31.53706 | 121.07081 | 23174 ft | 437 kts | 332° |
| 2026-05-04 16:29 | 31.64886 | 121.01089 | 24536 ft | 446 kts | 332° |
| 2026-05-04 16:30 | 31.73400 | 120.96549 | 25556 ft | 450 kts | 330° |
| 2026-05-04 16:31 | 31.79122 | 120.93490 | 26176 ft | 454 kts | 330° |
| 2026-05-04 16:31 | 31.87793 | 120.88852 | 27108 ft | 459 kts | 329° |
| 2026-05-04 16:32 | 31.96513 | 120.84175 | 28032 ft | 464 kts | 329° |
| 2026-05-04 16:33 | 32.02417 | 120.80987 | 28489 ft | 470 kts | 330° |
| 2026-05-04 16:33 | 32.08393 | 120.77778 | 29036 ft | 473 kts | 329° |